Time;durP1;ratioP1;P1;durP2;ratioP2;P2;SDS_P1;SDS_P2;PMS_P1;PMS_P2;Temp;Humidity;BMP_temperature;BMP_pressure;BME280_temperature;BME280_humidity;BME280_pressure;Samples;Min_cycle;Max_cycle;Signal;HPM_P1;HPM_P2
2022/02/26 00:01:31;;;;;;;9.43;1.00;;;2.00;99.90;;;;;;5031344;28;20037;-80
2022/02/26 00:03:56;;;;;;;5.90;0.70;;;1.90;99.90;;;;;;5042962;28;20064;-81
2022/02/26 00:06:22;;;;;;;4.40;0.60;;;1.80;99.90;;;;;;5042967;28;20112;-80
2022/02/26 00:08:47;;;;;;;5.75;0.52;;;1.80;99.90;;;;;;5016179;28;20055;-80
2022/02/26 00:11:13;;;;;;;3.10;0.60;;;1.70;99.90;;;;;;5021566;28;20071;-80
2022/02/26 00:13:38;;;;;;;3.08;0.40;;;1.60;99.90;;;;;;5037023;28;20083;-81
2022/02/26 00:16:05;;;;;;;3.15;0.40;;;1.50;99.90;;;;;;5038293;28;20548;-80
2022/02/26 00:18:31;;;;;;;4.22;0.40;;;1.60;99.90;;;;;;5053521;28;20040;-80
2022/02/26 00:20:56;;;;;;;2.50;0.60;;;1.60;99.90;;;;;;5022491;28;20056;-80
2022/02/26 00:23:22;;;;;;;4.35;0.50;;;1.50;99.90;;;;;;5053505;28;20503;-79
2022/02/26 00:25:47;;;;;;;6.07;0.50;;;1.40;99.90;;;;;;5015087;28;20065;-80
2022/02/26 00:28:13;;;;;;;2.17;0.38;;;1.40;99.90;;;;;;5032175;28;20039;-80
2022/02/26 00:30:39;;;;;;;3.58;0.50;;;1.30;99.90;;;;;;5037107;28;20390;-80
2022/02/26 00:33:05;;;;;;;4.32;0.50;;;1.10;99.90;;;;;;5014811;28;20068;-79
2022/02/26 00:35:30;;;;;;;3.30;0.40;;;1.10;99.90;;;;;;5020165;28;20435;-80
2022/02/26 00:37:56;;;;;;;3.42;0.40;;;1.00;99.90;;;;;;5029617;28;20094;-79
2022/02/26 00:40:22;;;;;;;3.30;0.40;;;1.00;99.90;;;;;;5031782;28;20029;-79
2022/02/26 00:42:47;;;;;;;3.40;0.50;;;1.00;99.90;;;;;;5031012;28;20283;-80
2022/02/26 00:45:13;;;;;;;2.58;0.35;;;0.90;99.90;;;;;;5052867;28;20053;-79
2022/02/26 00:47:39;;;;;;;1.38;0.30;;;0.90;99.90;;;;;;5041500;28;20076;-80
2022/02/26 00:50:05;;;;;;;2.17;0.30;;;0.70;99.90;;;;;;5039830;28;20024;-79
2022/02/26 00:52:33;;;;;;;3.40;0.30;;;0.70;99.90;;;;;;5037917;28;20036;-79
2022/02/26 00:55:00;;;;;;;2.97;0.40;;;0.70;99.90;;;;;;5016944;28;20033;-80
2022/02/26 00:57:26;;;;;;;3.85;0.60;;;0.70;99.90;;;;;;5035867;28;20127;-79
2022/02/26 00:59:52;;;;;;;6.60;0.40;;;0.60;99.90;;;;;;5035586;28;20033;-79
2022/02/26 01:02:19;;;;;;;3.28;0.40;;;0.60;99.90;;;;;;5037726;28;20112;-80
2022/02/26 01:04:46;;;;;;;5.63;0.40;;;0.50;99.90;;;;;;5037842;28;20017;-80
2022/02/26 01:07:12;;;;;;;2.05;0.30;;;0.50;99.90;;;;;;5014259;28;20041;-79
2022/02/26 01:09:38;;;;;;;2.70;0.30;;;0.60;99.90;;;;;;5020446;28;20033;-81
2022/02/26 01:12:06;;;;;;;5.25;0.40;;;0.50;99.90;;;;;;5019365;28;20035;-79
2022/02/26 01:14:33;;;;;;;2.58;0.40;;;0.40;99.90;;;;;;5029287;28;20034;-80
2022/02/26 01:17:00;;;;;;;1.73;0.30;;;0.40;99.90;;;;;;5012807;28;20047;-80
2022/02/26 01:19:25;;;;;;;1.88;0.40;;;0.30;99.90;;;;;;5037412;28;20538;-79
2022/02/26 01:21:51;;;;;;;2.20;0.50;;;0.20;99.90;;;;;;5036822;28;20041;-80
2022/02/26 01:24:17;;;;;;;2.05;0.30;;;0.20;99.90;;;;;;5014747;28;20048;-80
2022/02/26 01:26:43;;;;;;;3.40;0.30;;;0.20;99.90;;;;;;5052474;28;20485;-79
2022/02/26 01:29:08;;;;;;;2.38;0.30;;;0.20;99.90;;;;;;5029573;28;20029;-79
2022/02/26 01:31:37;;;;;;;3.63;0.30;;;0.20;99.90;;;;;;5041161;28;20033;-80
2022/02/26 01:34:04;;;;;;;3.03;0.30;;;0.30;99.90;;;;;;5037824;28;20037;-80
2022/02/26 01:36:30;;;;;;;1.88;0.28;;;0.20;99.90;;;;;;5019653;28;20071;-79
2022/02/26 01:38:56;;;;;;;4.80;0.40;;;0.10;99.90;;;;;;5037203;28;20354;-79
2022/02/26 01:41:22;;;;;;;3.03;0.40;;;0.10;99.90;;;;;;5020343;28;20112;-80
2022/02/26 01:43:48;;;;;;;3.95;0.30;;;-0.10;99.90;;;;;;5028726;28;20033;-81
2022/02/26 01:46:14;;;;;;;1.17;0.30;;;0.00;99.90;;;;;;5037135;28;20056;-80
2022/02/26 01:48:40;;;;;;;3.65;0.40;;;-0.10;99.90;;;;;;5029393;28;20082;-80
2022/02/26 01:51:08;;;;;;;3.72;0.30;;;-0.10;99.90;;;;;;5030266;28;20455;-80
2022/02/26 01:53:35;;;;;;;1.83;0.30;;;0.00;99.90;;;;;;5028769;28;20036;-81
2022/02/26 01:56:05;;;;;;;3.20;0.32;;;-0.10;99.90;;;;;;5036232;28;20048;-80
2022/02/26 01:58:31;;;;;;;2.13;0.40;;;-0.20;99.90;;;;;;5018295;28;20432;-80
2022/02/26 02:00:57;;;;;;;3.05;0.30;;;-0.20;99.90;;;;;;5012896;28;20025;-80
2022/02/26 02:03:23;;;;;;;2.65;0.40;;;-0.20;99.90;;;;;;5035677;28;20025;-80
2022/02/26 02:05:48;;;;;;;3.78;0.60;;;-0.20;99.90;;;;;;5030260;28;20029;-80
2022/02/26 02:08:15;;;;;;;2.55;0.38;;;-0.30;99.90;;;;;;5019202;28;20028;-80
2022/02/26 02:10:42;;;;;;;1.55;0.30;;;-0.30;99.90;;;;;;5031139;28;20036;-80
2022/02/26 02:13:08;;;;;;;2.50;0.30;;;-0.50;99.90;;;;;;5030404;28;20032;-80
2022/02/26 02:15:40;;;;;;;2.47;0.40;;;-0.40;99.90;;;;;;5018356;28;20021;-81
2022/02/26 02:18:07;;;;;;;5.32;0.60;;;-0.30;99.90;;;;;;5033884;28;20490;-80
2022/02/26 02:20:33;;;;;;;4.45;0.50;;;-0.40;99.90;;;;;;5040950;28;20085;-80
2022/02/26 02:22:59;;;;;;;2.65;0.40;;;-0.40;99.90;;;;;;5033824;28;20040;-80
2022/02/26 02:25:33;;;;;;;2.17;0.50;;;-0.50;99.90;;;;;;5022662;28;20367;-79
2022/02/26 02:27:59;;;;;;;4.35;0.40;;;-0.60;99.90;;;;;;5038990;28;20604;-80
2022/02/26 02:30:27;;;;;;;3.65;0.43;;;-0.60;99.90;;;;;;5056702;28;20055;-80
2022/02/26 02:32:55;;;;;;;2.05;0.50;;;-0.50;99.90;;;;;;5048489;28;20124;-80
2022/02/26 02:35:29;;;;;;;3.25;0.30;;;-0.50;99.90;;;;;;5056797;28;20055;-80
2022/02/26 02:37:56;;;;;;;4.60;0.47;;;-0.70;99.90;;;;;;5039585;28;20040;-80
2022/02/26 02:40:23;;;;;;;3.17;0.50;;;-0.50;99.90;;;;;;5054743;28;20021;-80
2022/02/26 02:42:49;;;;;;;4.65;0.70;;;-0.60;99.90;;;;;;5040625;28;20041;-81
2022/02/26 02:45:14;;;;;;;3.38;0.43;;;-0.60;99.90;;;;;;5040402;28;20079;-80
2022/02/26 02:47:40;;;;;;;2.35;0.40;;;-0.70;99.90;;;;;;5044333;28;20053;-80
2022/02/26 02:50:06;;;;;;;3.40;0.60;;;-0.60;99.90;;;;;;5044746;28;20041;-80
2022/02/26 02:52:32;;;;;;;1.50;0.40;;;-0.70;99.90;;;;;;5056097;28;20031;-80
2022/02/26 02:54:57;;;;;;;1.70;0.30;;;-0.70;99.90;;;;;;5044265;28;20389;-79
2022/02/26 02:57:23;;;;;;;1.95;0.47;;;-0.60;99.90;;;;;;5032830;28;20560;-80
2022/02/26 02:59:48;;;;;;;2.33;0.40;;;-0.70;99.90;;;;;;5022323;28;20584;-80
2022/02/26 03:02:14;;;;;;;2.22;0.45;;;-0.80;99.90;;;;;;5033285;28;20032;-79
2022/02/26 03:04:40;;;;;;;2.08;0.40;;;-0.70;99.90;;;;;;5044382;28;20033;-80
2022/02/26 03:07:05;;;;;;;2.40;0.40;;;-0.80;99.90;;;;;;5022149;28;22178;-80
2022/02/26 03:09:31;;;;;;;2.33;0.40;;;-0.90;99.90;;;;;;5039805;28;20048;-80
2022/02/26 03:11:56;;;;;;;3.33;0.40;;;-0.90;99.90;;;;;;5039215;28;20045;-80
2022/02/26 03:14:22;;;;;;;2.80;0.40;;;-0.90;99.90;;;;;;5017183;28;20060;-79
2022/02/26 03:16:48;;;;;;;1.63;0.40;;;-0.90;99.90;;;;;;5031742;28;20037;-80
2022/02/26 03:19:13;;;;;;;3.80;0.40;;;-0.80;99.90;;;;;;5032555;28;20029;-80
2022/02/26 03:21:39;;;;;;;2.95;0.38;;;-0.80;99.90;;;;;;5032473;28;20501;-80
2022/02/26 03:24:08;;;;;;;2.67;0.40;;;-0.80;99.90;;;;;;5015272;28;20021;-80
2022/02/26 03:26:34;;;;;;;4.85;0.40;;;-0.80;99.90;;;;;;5044840;28;20033;-79
2022/02/26 03:29:00;;;;;;;1.48;0.40;;;-0.80;99.90;;;;;;5042835;28;20043;-79
2022/02/26 03:31:25;;;;;;;2.28;0.30;;;-0.70;99.90;;;;;;5021979;28;20063;-79
2022/02/26 03:33:51;;;;;;;4.53;0.85;;;-0.70;99.90;;;;;;5021979;28;20410;-79
2022/02/26 03:36:17;;;;;;;2.70;0.40;;;-0.90;99.90;;;;;;5016516;28;20033;-78
2022/02/26 03:38:42;;;;;;;3.80;0.50;;;-0.90;99.90;;;;;;5021541;28;20056;-79
2022/02/26 03:41:13;;;;;;;1.40;0.40;;;-1.00;99.90;;;;;;5044503;28;20025;-79
2022/02/26 03:43:40;;;;;;;2.78;0.40;;;-1.00;99.90;;;;;;5033340;28;20045;-78
2022/02/26 03:46:06;;;;;;;3.40;0.40;;;-0.90;99.90;;;;;;5037919;28;20060;-78
2022/02/26 03:48:32;;;;;;;3.25;0.50;;;-0.90;99.90;;;;;;5020252;28;20074;-78
2022/02/26 03:51:05;;;;;;;2.90;0.50;;;-1.00;99.90;;;;;;5031109;28;20029;-79
2022/02/26 03:53:31;;;;;;;4.53;0.60;;;-1.10;99.90;;;;;;5037116;28;20377;-79
2022/02/26 03:55:58;;;;;;;3.25;0.63;;;-1.20;99.90;;;;;;5038274;28;20114;-78
2022/02/26 03:58:24;;;;;;;2.58;0.40;;;-1.20;99.90;;;;;;5037402;28;20025;-78
2022/02/26 04:00:49;;;;;;;2.88;0.50;;;-1.20;99.90;;;;;;5030719;28;20500;-79
2022/02/26 04:03:16;;;;;;;1.77;0.50;;;-1.30;99.90;;;;;;5020373;28;20033;-79
2022/02/26 04:05:41;;;;;;;2.30;0.50;;;-1.10;99.90;;;;;;5053660;28;20437;-79
2022/02/26 04:08:07;;;;;;;2.47;0.82;;;-1.30;99.90;;;;;;5042332;28;20037;-79
2022/02/26 04:10:33;;;;;;;2.58;0.40;;;-1.30;99.90;;;;;;5053400;28;20090;-79
2022/02/26 04:12:58;;;;;;;1.60;0.40;;;-1.40;99.90;;;;;;5038918;28;20091;-78
2022/02/26 04:15:24;;;;;;;1.42;0.32;;;-1.40;99.90;;;;;;5020053;28;20040;-79
2022/02/26 04:17:49;;;;;;;5.03;0.60;;;-1.40;99.90;;;;;;5037325;28;20091;-79
2022/02/26 04:20:15;;;;;;;1.70;0.40;;;-1.40;99.90;;;;;;5021794;28;20040;-79
2022/02/26 04:22:40;;;;;;;3.00;0.43;;;-1.40;99.90;;;;;;5020213;28;20033;-79
2022/02/26 04:25:07;;;;;;;2.67;0.50;;;-1.40;99.90;;;;;;5037364;28;20041;-79
2022/02/26 04:27:32;;;;;;;4.63;0.50;;;-1.50;99.90;;;;;;5036670;28;20037;-79
2022/02/26 04:29:58;;;;;;;4.28;0.40;;;-1.50;99.90;;;;;;5023057;28;20070;-79
2022/02/26 04:32:24;;;;;;;2.42;0.40;;;-1.40;99.90;;;;;;5048050;28;20557;-79
2022/02/26 04:34:49;;;;;;;3.05;0.40;;;-1.50;99.90;;;;;;5042339;28;20116;-79
2022/02/26 04:37:20;;;;;;;2.40;0.40;;;-1.70;99.90;;;;;;5014848;28;20047;-79
2022/02/26 04:39:46;;;;;;;3.17;0.30;;;-1.60;99.90;;;;;;5019708;28;20119;-79
2022/02/26 04:42:12;;;;;;;2.47;0.50;;;-1.60;99.90;;;;;;5036972;28;20033;-78
2022/02/26 04:44:37;;;;;;;0.98;0.32;;;-1.50;99.90;;;;;;5031893;28;20028;-79
2022/02/26 04:47:04;;;;;;;1.45;0.38;;;-1.60;99.90;;;;;;5043012;28;20151;-79
2022/02/26 04:49:29;;;;;;;4.70;0.40;;;-1.40;99.90;;;;;;5031089;28;20079;-79
2022/02/26 04:51:55;;;;;;;3.10;0.57;;;-1.20;99.90;;;;;;5038091;28;20426;-79
2022/02/26 04:54:21;;;;;;;2.72;0.70;;;-1.10;99.90;;;;;;5037199;28;20033;-79
2022/02/26 04:56:46;;;;;;;4.60;0.50;;;-1.10;99.90;;;;;;5042307;28;20045;-79
2022/02/26 04:59:12;;;;;;;3.47;0.40;;;-1.40;99.90;;;;;;5053017;28;20037;-79
2022/02/26 05:01:37;;;;;;;5.85;0.43;;;-1.50;99.90;;;;;;5020396;28;20064;-79
2022/02/26 05:04:03;;;;;;;4.45;0.60;;;-1.10;99.90;;;;;;5030495;28;20465;-78
2022/02/26 05:06:29;;;;;;;5.25;0.60;;;-1.00;99.90;;;;;;5019611;28;20035;-79
2022/02/26 05:08:54;;;;;;;4.30;0.80;;;-1.40;99.90;;;;;;5036407;28;20135;-79
2022/02/26 05:11:20;;;;;;;3.03;0.40;;;-1.50;99.90;;;;;;5037168;28;20119;-79
2022/02/26 05:13:45;;;;;;;1.40;0.40;;;-1.50;99.90;;;;;;5031074;28;20036;-80
2022/02/26 05:16:11;;;;;;;1.33;0.30;;;-1.60;99.90;;;;;;5030227;28;20908;-79
2022/02/26 05:18:38;;;;;;;1.70;0.30;;;-1.70;99.90;;;;;;5053343;28;20045;-79
2022/02/26 05:21:04;;;;;;;1.77;0.30;;;-1.60;99.90;;;;;;5014238;28;20032;-79
2022/02/26 05:23:29;;;;;;;1.95;0.30;;;-1.60;99.90;;;;;;5023670;28;20029;-79
2022/02/26 05:25:55;;;;;;;2.70;0.40;;;-1.40;99.90;;;;;;5043227;28;20480;-78
2022/02/26 05:28:20;;;;;;;2.15;0.30;;;-1.40;99.90;;;;;;5041980;28;20302;-79
2022/02/26 05:30:46;;;;;;;1.35;0.30;;;-1.50;99.90;;;;;;5019310;28;20420;-79
2022/02/26 05:33:12;;;;;;;2.35;0.30;;;-1.40;99.90;;;;;;5037530;28;20039;-78
2022/02/26 05:35:37;;;;;;;1.60;0.40;;;-1.50;99.90;;;;;;5041152;28;20028;-79
2022/02/26 05:38:03;;;;;;;1.83;0.30;;;-1.60;99.90;;;;;;5041777;28;20642;-79
2022/02/26 05:40:29;;;;;;;3.55;0.30;;;-1.50;99.90;;;;;;5019933;28;20029;-78
2022/02/26 05:42:54;;;;;;;2.08;0.40;;;-1.50;99.90;;;;;;5037894;28;20041;-78
2022/02/26 05:45:20;;;;;;;1.95;0.40;;;-1.60;99.90;;;;;;5018371;28;20025;-77
2022/02/26 05:47:46;;;;;;;3.97;0.40;;;-1.80;99.90;;;;;;5040687;28;20059;-79
2022/02/26 05:50:13;;;;;;;2.17;0.50;;;-1.70;99.90;;;;;;5020533;28;20413;-78
2022/02/26 05:52:39;;;;;;;4.75;0.40;;;-1.70;99.90;;;;;;5015316;28;20033;-78
2022/02/26 05:55:05;;;;;;;3.72;0.32;;;-1.80;99.90;;;;;;5046146;28;20068;-78
2022/02/26 05:57:31;;;;;;;2.30;0.35;;;-1.50;99.90;;;;;;5039795;28;20127;-77
2022/02/26 05:59:56;;;;;;;1.60;0.43;;;-1.60;99.90;;;;;;5023885;28;20247;-78
2022/02/26 06:02:22;;;;;;;2.20;0.30;;;-1.70;99.90;;;;;;5055651;28;20028;-78
2022/02/26 06:04:47;;;;;;;3.80;0.32;;;-1.80;99.90;;;;;;5023808;28;20029;-78
2022/02/26 06:07:13;;;;;;;3.97;0.40;;;-1.60;99.90;;;;;;5023705;28;20021;-78
2022/02/26 06:09:39;;;;;;;3.22;0.43;;;-1.70;99.90;;;;;;5041209;28;20075;-77
2022/02/26 06:12:05;;;;;;;2.45;0.38;;;-1.70;99.90;;;;;;5023190;28;20122;-78
2022/02/26 06:14:30;;;;;;;2.38;0.60;;;-1.80;99.90;;;;;;5012392;28;20025;-77
2022/02/26 06:16:56;;;;;;;5.35;0.40;;;-1.80;99.90;;;;;;5040691;28;20045;-77
2022/02/26 06:19:22;;;;;;;6.53;0.40;;;-1.50;99.90;;;;;;5034580;28;22026;-78
2022/02/26 06:21:48;;;;;;;3.15;0.40;;;-1.60;99.90;;;;;;5034285;28;20500;-78
2022/02/26 06:24:17;;;;;;;3.67;0.77;;;-1.60;99.90;;;;;;5032673;28;20587;-78
2022/02/26 06:26:44;;;;;;;5.07;0.70;;;-1.70;99.90;;;;;;5032997;28;20041;-78
2022/02/26 06:29:09;;;;;;;5.28;0.60;;;-1.70;99.90;;;;;;5050556;28;20044;-78
2022/02/26 06:31:35;;;;;;;3.85;0.60;;;-1.50;99.90;;;;;;5040209;28;20021;-77
2022/02/26 06:34:01;;;;;;;6.63;0.70;;;-1.50;99.90;;;;;;5039873;28;20465;-77
2022/02/26 06:36:26;;;;;;;3.90;0.50;;;-1.50;99.90;;;;;;5039338;28;20033;-77
2022/02/26 06:38:52;;;;;;;4.97;0.80;;;-1.50;99.90;;;;;;5017749;28;20035;-77
2022/02/26 06:41:18;;;;;;;5.30;0.45;;;-1.60;99.90;;;;;;5012089;28;20480;-77
2022/02/26 06:43:43;;;;;;;2.83;0.50;;;-1.30;99.90;;;;;;5044334;28;20025;-77
2022/02/26 06:46:11;;;;;;;3.40;0.60;;;-1.50;99.90;;;;;;5038091;28;20100;-78
2022/02/26 06:48:37;;;;;;;2.60;0.45;;;-1.40;99.90;;;;;;5043505;28;20037;-77
2022/02/26 06:51:02;;;;;;;3.35;0.63;;;-1.20;99.90;;;;;;5017461;28;20024;-77
2022/02/26 06:53:28;;;;;;;3.67;0.73;;;-1.30;99.90;;;;;;5022531;28;20486;-77
2022/02/26 06:55:54;;;;;;;4.45;0.60;;;-1.30;99.90;;;;;;5039157;28;20029;-77
2022/02/26 06:58:19;;;;;;;2.78;0.50;;;-1.30;99.90;;;;;;5055333;28;20489;-78
2022/02/26 07:00:45;;;;;;;5.30;0.50;;;-1.00;99.90;;;;;;5043762;28;20158;-78
2022/02/26 07:03:10;;;;;;;4.32;0.70;;;-1.10;99.90;;;;;;5044745;28;20056;-77
2022/02/26 07:05:36;;;;;;;2.60;0.50;;;-1.00;99.90;;;;;;5032809;28;20247;-77
2022/02/26 07:08:02;;;;;;;3.15;0.50;;;-1.00;99.90;;;;;;5037835;28;20559;-77
2022/02/26 07:10:27;;;;;;;2.58;0.60;;;-0.80;99.90;;;;;;5047645;28;20048;-77
2022/02/26 07:12:53;;;;;;;2.38;0.85;;;-0.80;99.90;;;;;;5033147;28;20047;-78
2022/02/26 07:15:19;;;;;;;2.33;0.70;;;-0.80;99.90;;;;;;5054081;28;20033;-77
2022/02/26 07:17:44;;;;;;;2.60;0.70;;;-0.80;99.90;;;;;;5044159;28;20040;-77
2022/02/26 07:20:10;;;;;;;2.95;0.70;;;-0.80;99.90;;;;;;5038238;28;20120;-77
2022/02/26 07:22:36;;;;;;;3.65;0.82;;;-0.70;99.90;;;;;;5037004;28;20029;-77
2022/02/26 07:25:02;;;;;;;2.95;0.80;;;-0.70;99.90;;;;;;5043007;28;20539;-78
2022/02/26 07:27:28;;;;;;;2.55;0.68;;;-0.60;99.90;;;;;;5039200;28;20138;-78
2022/02/26 07:29:53;;;;;;;1.83;0.60;;;-0.70;99.90;;;;;;5037346;28;20036;-77
2022/02/26 07:32:19;;;;;;;1.42;0.50;;;-0.60;99.90;;;;;;5046314;28;20037;-78
2022/02/26 07:34:44;;;;;;;1.30;0.50;;;-0.60;99.90;;;;;;5045344;28;20150;-78
2022/02/26 07:37:11;;;;;;;1.30;0.50;;;-0.40;99.90;;;;;;5039264;28;20068;-77
2022/02/26 07:39:36;;;;;;;0.95;0.40;;;-0.30;99.90;;;;;;5015411;28;20390;-78
2022/02/26 07:42:02;;;;;;;1.98;0.70;;;-0.30;99.90;;;;;;5043079;28;20031;-77
2022/02/26 07:44:28;;;;;;;1.17;0.60;;;-0.30;99.90;;;;;;5039241;28;20025;-78
2022/02/26 07:46:54;;;;;;;1.27;0.50;;;-0.20;99.90;;;;;;5022442;28;20060;-78
2022/02/26 07:49:19;;;;;;;1.30;0.50;;;-0.20;99.90;;;;;;5034506;28;20037;-78
2022/02/26 07:51:45;;;;;;;1.42;0.60;;;-0.20;99.90;;;;;;4998178;28;22225;-78
2022/02/26 07:54:10;;;;;;;1.65;0.60;;;-0.10;99.90;;;;;;4995644;28;20120;-77
2022/02/26 07:56:36;;;;;;;1.10;0.50;;;0.00;99.90;;;;;;4996379;28;20116;-78
2022/02/26 07:59:01;;;;;;;1.38;0.60;;;0.10;99.90;;;;;;5026775;28;20386;-78
2022/02/26 08:01:27;;;;;;;1.48;0.52;;;0.10;99.90;;;;;;4994599;28;20038;-78
2022/02/26 08:03:53;;;;;;;1.40;0.60;;;0.20;99.90;;;;;;5017317;28;20116;-78
2022/02/26 08:06:18;;;;;;;1.40;0.60;;;0.20;99.90;;;;;;5007686;28;20033;-77
2022/02/26 08:08:44;;;;;;;1.10;0.60;;;0.20;99.90;;;;;;5016970;28;20468;-78
2022/02/26 08:11:10;;;;;;;1.77;0.65;;;0.20;99.90;;;;;;5017096;28;20029;-78
2022/02/26 08:13:35;;;;;;;1.20;0.50;;;0.30;99.90;;;;;;5000950;28;20568;-78
2022/02/26 08:16:01;;;;;;;1.20;0.60;;;0.30;99.90;;;;;;5000731;28;20037;-78
2022/02/26 08:18:26;;;;;;;1.17;0.50;;;0.40;99.90;;;;;;5011226;28;20037;-78
2022/02/26 08:20:52;;;;;;;1.20;0.52;;;0.40;99.90;;;;;;5011596;28;20567;-77
2022/02/26 08:23:17;;;;;;;1.10;0.50;;;0.50;99.90;;;;;;5011535;28;20072;-79
2022/02/26 08:25:43;;;;;;;1.33;0.50;;;0.60;99.90;;;;;;4996645;28;20037;-79
2022/02/26 08:28:09;;;;;;;1.25;0.50;;;0.60;99.90;;;;;;4999143;28;20053;-79
2022/02/26 08:30:35;;;;;;;2.00;0.52;;;0.80;99.90;;;;;;4985515;28;20053;-78
2022/02/26 08:33:01;;;;;;;1.48;0.60;;;0.80;99.90;;;;;;4991564;28;20107;-78
2022/02/26 08:35:26;;;;;;;1.60;0.60;;;0.90;99.90;;;;;;5015891;28;20092;-78
2022/02/26 08:37:52;;;;;;;1.42;0.60;;;1.00;99.90;;;;;;5016827;28;20091;-77
2022/02/26 08:40:18;;;;;;;1.10;0.55;;;1.10;99.90;;;;;;5031515;28;20231;-78
2022/02/26 08:42:44;;;;;;;1.50;0.80;;;1.10;99.90;;;;;;5010436;28;20052;-78
2022/02/26 08:45:10;;;;;;;1.10;0.60;;;1.00;99.90;;;;;;5016717;28;20391;-78
2022/02/26 08:47:36;;;;;;;1.55;0.80;;;1.20;99.90;;;;;;5027973;28;20459;-78
2022/02/26 08:50:04;;;;;;;1.70;0.85;;;1.30;99.90;;;;;;5025390;28;20032;-77
2022/02/26 08:52:30;;;;;;;1.70;0.77;;;1.40;99.90;;;;;;5032654;28;20034;-78
2022/02/26 08:54:56;;;;;;;2.13;0.90;;;1.60;99.90;;;;;;5021908;28;20033;-78
2022/02/26 08:57:21;;;;;;;1.65;0.80;;;1.60;99.90;;;;;;5015628;28;20044;-78
2022/02/26 08:59:47;;;;;;;2.40;1.17;;;1.80;99.90;;;;;;5032226;28;20056;-80
2022/02/26 09:02:13;;;;;;;1.58;0.73;;;2.10;99.90;;;;;;5023133;28;20036;-78
2022/02/26 09:04:39;;;;;;;2.20;1.10;;;2.20;99.90;;;;;;5000588;28;20540;-79
2022/02/26 09:07:05;;;;;;;2.55;0.93;;;2.30;99.90;;;;;;5017552;28;20028;-79
2022/02/26 09:09:31;;;;;;;2.05;1.10;;;2.50;99.90;;;;;;5012437;28;20378;-79
2022/02/26 09:11:57;;;;;;;2.13;1.13;;;2.80;99.90;;;;;;4994224;28;20067;-79
2022/02/26 09:14:24;;;;;;;2.22;0.90;;;2.90;99.90;;;;;;4994231;28;20258;-79
2022/02/26 09:16:49;;;;;;;1.98;0.95;;;3.10;99.90;;;;;;5002304;28;20041;-79
2022/02/26 09:19:15;;;;;;;4.28;1.23;;;3.20;99.90;;;;;;5016379;28;20036;-79
2022/02/26 09:21:41;;;;;;;3.15;0.95;;;3.30;99.90;;;;;;5011097;28;20037;-79
2022/02/26 09:24:06;;;;;;;2.28;1.23;;;3.40;99.90;;;;;;5017278;28;20148;-80
2022/02/26 09:26:32;;;;;;;2.45;1.42;;;3.50;99.90;;;;;;5013562;28;20092;-79
2022/02/26 09:28:58;;;;;;;2.22;1.13;;;3.60;99.90;;;;;;4959480;28;20200;-80
2022/02/26 09:31:24;;;;;;;3.85;2.00;;;3.90;99.90;;;;;;5011630;28;20144;-78
2022/02/26 09:33:50;;;;;;;3.25;1.42;;;3.90;99.90;;;;;;4996671;28;20406;-79
2022/02/26 09:36:16;;;;;;;4.82;2.00;;;4.10;99.90;;;;;;5002177;28;20061;-79
2022/02/26 09:38:43;;;;;;;4.82;2.47;;;4.10;99.90;;;;;;4991692;28;20041;-80
2022/02/26 09:41:09;;;;;;;4.10;2.33;;;4.30;99.90;;;;;;5020720;28;20033;-80
2022/02/26 09:43:35;;;;;;;6.47;2.45;;;4.40;99.90;;;;;;5015825;28;20087;-80
2022/02/26 09:46:03;;;;;;;4.15;2.70;;;4.50;99.90;;;;;;5016227;28;20057;-80
2022/02/26 09:48:29;;;;;;;7.68;2.92;;;4.70;99.90;;;;;;5032926;28;20072;-81
2022/02/26 09:50:55;;;;;;;5.40;2.67;;;4.90;99.90;;;;;;5016805;28;20067;-81
2022/02/26 09:53:21;;;;;;;5.72;2.65;;;5.00;99.90;;;;;;5018302;28;20172;-81
2022/02/26 09:55:48;;;;;;;9.40;3.17;;;5.20;99.90;;;;;;4993592;28;20358;-81
2022/02/26 09:58:15;;;;;;;7.90;4.07;;;5.30;99.90;;;;;;4995766;28;20556;-81
2022/02/26 10:00:41;;;;;;;6.15;2.38;;;5.50;99.90;;;;;;4993261;28;20056;-81
2022/02/26 10:03:27;;;;;;;4.32;1.40;;;5.70;99.90;;;;;;5008976;28;20528;-80
2022/02/26 10:06:14;;;;;;;7.55;1.80;;;5.80;99.90;;;;;;4992359;28;20034;-80
2022/02/26 10:09:00;;;;;;;8.43;2.40;;;5.80;99.90;;;;;;5014985;28;20509;-80
2022/02/26 10:11:44;;;;;;;5.22;2.10;;;5.90;99.90;;;;;;5010598;28;20034;-81
2022/02/26 10:14:17;;;;;;;6.55;2.55;;;6.10;99.90;;;;;;4991084;28;20096;-81
2022/02/26 10:16:54;;;;;;;6.82;2.45;;;6.20;99.90;;;;;;4987005;28;20167;-80
2022/02/26 10:19:29;;;;;;;8.65;3.40;;;6.20;99.90;;;;;;5015943;28;20039;-80
2022/02/26 10:21:58;;;;;;;6.20;2.15;;;6.50;99.90;;;;;;4994635;28;20516;-80
2022/02/26 10:24:24;;;;;;;5.25;1.80;;;6.70;99.90;;;;;;5015731;28;20064;-80
2022/02/26 10:26:52;;;;;;;6.40;1.58;;;6.80;99.90;;;;;;5015966;28;20378;-80
2022/02/26 10:29:21;;;;;;;6.50;1.90;;;7.00;99.90;;;;;;5016037;28;20033;-79
2022/02/26 10:31:53;;;;;;;6.10;2.30;;;7.10;99.90;;;;;;4992638;28;20780;-80
2022/02/26 10:34:28;;;;;;;8.60;3.08;;;7.10;99.90;;;;;;5009430;28;20061;-80
2022/02/26 10:36:58;;;;;;;8.27;2.95;;;6.90;99.90;;;;;;5020617;28;20493;-80
2022/02/26 10:39:33;;;;;;;9.48;2.00;;;7.00;99.90;;;;;;5017570;28;20035;-80
2022/02/26 10:41:59;;;;;;;7.32;2.05;;;7.30;99.90;;;;;;5014016;28;20033;-79
2022/02/26 10:44:25;;;;;;;7.13;2.20;;;7.40;99.90;;;;;;5013082;28;20029;-80
2022/02/26 10:46:51;;;;;;;9.68;2.28;;;7.60;99.90;;;;;;5018743;28;20226;-80
2022/02/26 10:49:18;;;;;;;7.47;1.08;;;7.10;99.90;;;;;;5013479;28;20148;-80
2022/02/26 10:51:45;;;;;;;8.00;1.00;;;7.50;99.90;;;;;;4996102;28;20037;-82
2022/02/26 10:54:19;;;;;;;3.67;0.47;;;7.60;99.90;;;;;;5020918;28;20033;-81
2022/02/26 10:56:45;;;;;;;6.38;0.40;;;7.90;99.90;;;;;;5019932;28;20029;-81
2022/02/26 10:59:31;;;;;;;5.35;0.50;;;8.00;99.90;;;;;;5036298;28;20129;-80
2022/02/26 11:01:59;;;;;;;4.45;1.13;;;7.80;99.90;;;;;;4995564;28;20033;-80
2022/02/26 11:04:25;;;;;;;5.60;0.50;;;7.90;99.90;;;;;;4995918;28;20049;-81
2022/02/26 11:06:51;;;;;;;5.10;0.70;;;7.80;99.90;;;;;;5018213;28;20125;-81
2022/02/26 11:09:18;;;;;;;6.43;0.50;;;7.80;99.90;;;;;;5034988;28;20032;-81
2022/02/26 11:11:45;;;;;;;6.70;0.65;;;8.10;99.90;;;;;;4996965;28;20071;-81
2022/02/26 11:14:14;;;;;;;4.28;0.45;;;7.90;99.90;;;;;;5018209;28;20032;-81
2022/02/26 11:16:40;;;;;;;7.65;0.65;;;7.80;99.90;;;;;;5014510;28;20037;-82
2022/02/26 11:19:08;;;;;;;4.65;0.50;;;7.50;99.90;;;;;;5020597;28;20128;-82
2022/02/26 11:21:35;;;;;;;5.05;0.40;;;7.40;99.90;;;;;;5014551;28;20037;-82
2022/02/26 11:24:02;;;;;;;6.47;0.50;;;7.70;99.90;;;;;;4997722;28;20060;-82
2022/02/26 11:26:28;;;;;;;6.60;0.40;;;7.70;99.90;;;;;;5013431;28;20044;-82
2022/02/26 11:28:58;;;;;;;6.53;0.60;;;7.60;99.90;;;;;;5001705;28;22112;-81
2022/02/26 11:31:44;;;;;;;9.48;0.52;;;7.70;99.90;;;;;;5036030;28;20049;-81
2022/02/26 11:34:10;;;;;;;4.50;0.50;;;7.80;99.90;;;;;;5011341;28;20507;-81
2022/02/26 11:36:48;;;;;;;3.95;0.30;;;7.80;99.90;;;;;;5022999;28;20148;-83
2022/02/26 11:39:39;;;;;;;5.38;0.30;;;7.80;99.90;;;;;;4980314;28;20124;-82
2022/02/26 11:42:13;;;;;;;4.45;0.40;;;7.90;99.90;;;;;;4996276;28;20037;-82
2022/02/26 11:45:10;;;;;;;4.63;0.50;;;7.80;99.90;;;;;;5002250;28;20401;-81
2022/02/26 11:47:38;;;;;;;3.55;0.80;;;7.90;99.90;;;;;;4990044;28;20144;-80
2022/02/26 11:50:21;;;;;;;5.20;0.65;;;7.80;99.90;;;;;;5027955;28;20473;-82
2022/02/26 11:52:56;;;;;;;5.97;0.65;;;7.70;99.90;;;;;;5013351;28;20695;-82
2022/02/26 11:55:43;;;;;;;5.32;0.75;;;7.70;99.90;;;;;;5018809;28;20029;-82
2022/02/26 11:58:20;;;;;;;5.32;0.90;;;7.50;99.90;;;;;;5034904;28;20095;-82
2022/02/26 12:00:52;;;;;;;6.78;0.77;;;7.50;99.90;;;;;;4995932;28;20029;-81
2022/02/26 12:03:27;;;;;;;6.82;0.60;;;7.50;99.90;;;;;;5012162;28;20120;-82
2022/02/26 12:06:12;;;;;;;6.68;0.90;;;7.60;99.90;;;;;;4996007;28;20033;-81
2022/02/26 12:08:47;;;;;;;3.53;0.70;;;7.70;99.90;;;;;;5011541;28;20041;-82
2022/02/26 12:11:31;;;;;;;5.00;1.20;;;7.80;99.90;;;;;;5018018;28;20046;-81
2022/02/26 12:14:19;;;;;;;4.68;1.10;;;7.90;99.90;;;;;;5018947;28;20049;-83
2022/02/26 12:16:48;;;;;;;2.92;0.57;;;8.30;99.90;;;;;;5018397;28;20033;-82
2022/02/26 12:19:14;;;;;;;4.55;0.60;;;8.40;99.90;;;;;;5002062;28;20509;-81
2022/02/26 12:21:51;;;;;;;3.28;0.50;;;8.50;99.90;;;;;;5029689;28;20021;-82
2022/02/26 12:24:23;;;;;;;6.03;0.70;;;8.60;99.90;;;;;;5034415;28;20025;-81
2022/02/26 12:26:59;;;;;;;8.55;1.33;;;8.80;99.90;;;;;;5016352;28;20044;-82
2022/02/26 12:29:40;;;;;;;3.58;0.60;;;8.90;99.90;;;;;;5027112;28;20041;-81
2022/02/26 12:32:14;;;;;;;3.67;0.60;;;8.70;99.90;;;;;;5011005;28;20564;-82
2022/02/26 12:34:51;;;;;;;5.40;0.95;;;8.70;99.90;;;;;;5034206;28;20037;-82
2022/02/26 12:37:20;;;;;;;9.52;0.90;;;8.50;99.90;;;;;;5011129;28;20128;-81
2022/02/26 12:39:51;;;;;;;4.25;0.63;;;8.40;99.90;;;;;;5000966;28;20040;-81
2022/02/26 12:42:39;;;;;;;3.88;0.70;;;8.20;99.90;;;;;;5012081;28;20087;-81
2022/02/26 12:45:07;;;;;;;5.25;1.42;;;8.20;99.90;;;;;;5015832;28;20480;-81
2022/02/26 12:47:34;;;;;;;6.38;1.67;;;8.10;99.90;;;;;;5020084;28;20045;-81
2022/02/26 12:50:00;;;;;;;5.45;1.30;;;7.90;99.90;;;;;;5001356;28;20035;-82
2022/02/26 12:52:28;;;;;;;5.72;1.38;;;7.90;99.90;;;;;;5000702;28;20041;-82
2022/02/26 12:54:54;;;;;;;7.43;1.27;;;7.70;99.90;;;;;;5033761;28;20033;-81